Time;durP1;ratioP1;P1;durP2;ratioP2;P2;SDS_P1;SDS_P2;PMS_P1;PMS_P2;Temp;Humidity;BMP_temperature;BMP_pressure;BME280_temperature;BME280_humidity;BME280_pressure;Samples;Min_cycle;Max_cycle;Signal;HPM_P1;HPM_P2
2022/05/03 00:00:29;;;;;;;14.23;7.73;;;6.20;63.20;;;;;;4999942;28;20250;-90
2022/05/03 00:08:54;;;;;;;13.33;7.13;;;5.90;60.60;;;;;;4997998;28;20751;-91
2022/05/03 00:11:33;;;;;;;20.47;7.93;;;5.80;80.90;;;;;;4999829;28;20637;-90
2022/05/03 00:14:34;;;;;;;14.90;8.30;;;5.80;99.90;;;;;;4999229;28;20279;-93
2022/05/03 00:17:03;;;;;;;12.77;7.90;;;5.80;99.90;;;;;;4940657;29;20223;-90
2022/05/03 00:19:35;;;;;;;15.37;7.50;;;5.80;99.90;;;;;;4973747;28;20242;-90
2022/05/03 00:22:11;;;;;;;14.60;7.27;;;5.80;99.90;;;;;;4980366;28;20186;-92
2022/05/03 00:25:29;;;;;;;14.17;7.60;;;5.80;99.90;;;;;;4977077;28;20271;-90
2022/05/03 00:28:19;;;;;;;14.93;8.80;;;5.80;99.90;;;;;;4980143;28;20215;-91
2022/05/03 00:31:02;;;;;;;13.07;8.60;;;5.80;99.90;;;;;;4979562;28;20194;-92
2022/05/03 00:33:43;;;;;;;11.07;7.77;;;5.80;99.90;;;;;;4979733;28;20206;-93
2022/05/03 00:36:17;;;;;;;13.10;7.53;;;5.80;99.90;;;;;;4979826;28;20200;-91
2022/05/03 00:38:49;;;;;;;15.27;7.83;;;5.80;99.90;;;;;;4979693;28;20241;-90
2022/05/03 00:41:34;;;;;;;13.43;7.60;;;5.80;99.90;;;;;;4979623;28;20206;-90
2022/05/03 00:47:17;;;;;;;17.90;7.83;;;5.80;99.90;;;;;;4992242;28;20246;-90
2022/05/03 00:50:11;;;;;;;;;;;;;;;;;;;;;
2022/05/03 00:52:53;;;;;;;13.90;8.57;;;5.80;99.90;;;;;;4979584;29;20180;-92
2022/05/03 00:55:52;;;;;;;13.20;7.73;;;5.90;99.90;;;;;;4979098;28;20193;-91
2022/05/03 00:58:51;;;;;;;13.50;7.97;;;5.90;99.90;;;;;;4979470;28;20194;-88
2022/05/03 01:01:36;;;;;;;17.80;7.77;;;5.90;99.90;;;;;;4968593;28;20199;-92
2022/05/03 01:04:18;;;;;;;14.23;7.37;;;6.00;99.90;;;;;;4979037;29;20199;-92
2022/05/03 01:07:15;;;;;;;15.63;8.10;;;6.00;99.90;;;;;;4978994;29;20218;-89
2022/05/03 01:09:53;;;;;;;15.67;7.40;;;6.10;99.90;;;;;;4978570;28;20220;-92
2022/05/03 01:15:28;;;;;;;10.83;7.03;;;6.30;99.90;;;;;;4989791;28;20198;-91
2022/05/03 01:18:32;;;;;;;11.17;7.13;;;6.30;99.90;;;;;;4998052;28;20174;-90
2022/05/03 01:21:45;;;;;;;10.90;7.10;;;6.40;99.90;;;;;;4997410;28;20244;-91
2022/05/03 01:25:02;;;;;;;10.27;7.40;;;6.40;99.90;;;;;;4959857;28;20183;-91
2022/05/03 01:28:05;;;;;;;11.07;6.67;;;6.50;99.90;;;;;;4997686;28;20203;-89
2022/05/03 01:30:38;;;;;;;12.90;6.57;;;6.50;99.90;;;;;;4998202;28;20233;-91
2022/05/03 01:33:37;;;;;;;11.43;6.70;;;6.60;99.90;;;;;;4998225;28;20198;-91
2022/05/03 01:36:12;;;;;;;10.83;6.80;;;6.60;99.90;;;;;;4979068;28;20204;-92
2022/05/03 01:39:06;;;;;;;11.83;6.93;;;6.60;99.90;;;;;;4978569;29;20231;-90
2022/05/03 01:41:53;;;;;;;11.50;6.50;;;6.70;99.90;;;;;;4978033;28;20196;-88
2022/05/03 01:47:59;;;;;;;;;;;;;;;;;;;;;
2022/05/03 01:51:01;;;;;;;11.50;7.97;;;6.80;99.90;;;;;;4978742;29;20203;-90
2022/05/03 01:53:47;;;;;;;11.37;7.90;;;6.90;99.90;;;;;;4900845;29;20273;-91
2022/05/03 01:56:48;;;;;;;;;;;;;;;;;;;;;
2022/05/03 01:59:57;;;;;;;15.53;10.40;;;7.00;99.90;;;;;;4978425;29;20187;-90
2022/05/03 02:03:10;;;;;;;15.07;9.07;;;7.00;99.90;;;;;;4978886;28;20180;-91
2022/05/03 02:05:52;;;;;;;14.17;8.67;;;7.00;99.90;;;;;;4969841;28;20290;-89
2022/05/03 02:08:21;;;;;;;16.10;9.00;;;7.00;99.90;;;;;;4974541;28;20321;-87
2022/05/03 02:11:08;;;;;;;19.07;10.40;;;7.00;99.90;;;;;;4974121;28;20224;-90
2022/05/03 02:16:49;;;;;;;15.03;8.53;;;7.10;99.90;;;;;;4954900;29;20218;-88
2022/05/03 02:19:40;;;;;;;13.57;8.23;;;7.10;99.90;;;;;;4955206;28;20259;-92
2022/05/03 02:22:28;;;;;;;12.33;7.73;;;7.10;99.90;;;;;;4942551;29;20235;-88
2022/05/03 02:25:03;;;;;;;16.67;8.37;;;7.20;99.90;;;;;;4954734;28;20172;-88
2022/05/03 02:27:33;;;;;;;14.47;8.07;;;7.20;99.90;;;;;;4955155;28;20208;-89
2022/05/03 02:30:04;;;;;;;13.63;8.30;;;7.20;99.90;;;;;;4954624;28;20309;-88
2022/05/03 02:32:45;;;;;;;13.13;8.37;;;7.30;99.90;;;;;;4954609;28;20284;-88
2022/05/03 02:35:20;;;;;;;17.33;9.03;;;7.30;99.90;;;;;;4968233;28;20184;-89
2022/05/03 02:37:50;;;;;;;15.80;9.07;;;7.30;99.90;;;;;;4973867;28;20184;-88
2022/05/03 02:40:21;;;;;;;14.80;8.90;;;7.30;99.90;;;;;;4974119;28;20278;-88
2022/05/03 02:42:52;;;;;;;11.67;8.07;;;7.30;99.90;;;;;;4966659;28;20252;-91
2022/05/03 02:45:19;;;;;;;14.57;8.70;;;7.30;99.90;;;;;;4954830;28;20230;-88
2022/05/03 02:48:02;;;;;;;13.47;7.63;;;7.30;99.90;;;;;;4955186;28;20233;-89
2022/05/03 02:50:36;;;;;;;14.30;8.03;;;7.30;99.90;;;;;;4954650;28;20293;-88
2022/05/03 02:53:07;;;;;;;17.10;8.17;;;7.30;99.90;;;;;;4955774;28;20208;-90
2022/05/03 02:55:48;;;;;;;14.17;8.20;;;7.40;99.90;;;;;;4959158;28;20276;-91
2022/05/03 02:58:29;;;;;;;13.23;8.37;;;7.40;99.90;;;;;;4958625;28;20276;-89
2022/05/03 03:04:05;;;;;;;11.83;8.50;;;7.30;99.90;;;;;;4962027;28;20194;-89
2022/05/03 03:06:35;;;;;;;10.77;7.53;;;7.30;99.90;;;;;;4958299;28;20224;-89
2022/05/03 03:09:03;;;;;;;12.10;7.80;;;7.30;99.90;;;;;;4958237;28;20197;-88
2022/05/03 03:11:52;;;;;;;10.93;7.70;;;7.20;99.90;;;;;;4958052;28;20219;-88
2022/05/03 03:14:33;;;;;;;12.53;7.93;;;7.20;99.90;;;;;;4958476;28;20200;-88
2022/05/03 03:17:05;;;;;;;14.77;7.80;;;7.10;99.90;;;;;;4958239;28;20605;-88
2022/05/03 03:19:54;;;;;;;13.13;8.20;;;7.10;99.90;;;;;;4958054;28;20284;-88
2022/05/03 03:22:24;;;;;;;12.73;7.60;;;7.00;99.90;;;;;;4958157;28;20291;-91
2022/05/03 03:24:52;;;;;;;12.17;8.13;;;7.00;99.90;;;;;;4973073;28;20210;-89
2022/05/03 03:27:22;;;;;;;11.23;7.83;;;7.00;99.90;;;;;;4977390;28;20664;-88
2022/05/03 03:29:55;;;;;;;12.37;8.07;;;7.00;99.90;;;;;;4977436;28;20306;-91
2022/05/03 03:32:25;;;;;;;15.80;7.47;;;7.00;99.90;;;;;;4977695;28;20290;-88
2022/05/03 03:34:54;;;;;;;13.23;7.47;;;7.10;99.90;;;;;;4977274;28;20251;-88
2022/05/03 03:37:24;;;;;;;11.07;7.70;;;7.10;99.90;;;;;;4977149;28;20199;-92
2022/05/03 03:39:51;;;;;;;12.30;7.70;;;7.20;99.90;;;;;;4977158;28;20215;-91
2022/05/03 03:42:18;;;;;;;10.97;6.83;;;7.30;99.90;;;;;;4977346;28;20231;-88
2022/05/03 03:44:46;;;;;;;12.93;7.30;;;7.30;99.90;;;;;;4974326;28;20235;-91
2022/05/03 03:47:16;;;;;;;10.97;7.20;;;7.40;99.90;;;;;;4977027;28;20205;-87
2022/05/03 03:49:43;;;;;;;12.40;7.30;;;7.50;99.90;;;;;;4976713;28;20251;-88
2022/05/03 03:52:11;;;;;;;10.20;7.37;;;7.70;99.90;;;;;;4976794;28;20661;-88
2022/05/03 03:54:40;;;;;;;12.17;7.93;;;7.80;99.90;;;;;;4976610;28;20295;-88
2022/05/03 03:57:08;;;;;;;14.43;7.97;;;7.90;99.90;;;;;;4976738;28;20200;-88
2022/05/03 03:59:35;;;;;;;12.63;7.80;;;8.00;99.90;;;;;;4976534;28;20720;-88
2022/05/03 04:02:02;;;;;;;13.63;7.90;;;8.10;99.90;;;;;;4976678;28;20212;-89
2022/05/03 04:04:32;;;;;;;11.60;7.30;;;8.20;99.90;;;;;;4975312;28;20271;-89
2022/05/03 04:07:00;;;;;;;13.67;7.03;;;8.30;99.90;;;;;;4976795;28;20288;-89
2022/05/03 04:09:27;;;;;;;12.20;7.40;;;8.50;99.90;;;;;;4976344;28;20224;-89
2022/05/03 04:11:54;;;;;;;10.07;7.27;;;8.60;99.90;;;;;;4975558;28;20221;-89
2022/05/03 04:14:22;;;;;;;9.73;6.57;;;8.70;99.90;;;;;;4976792;28;20262;-89
2022/05/03 04:16:49;;;;;;;10.13;6.67;;;8.90;99.90;;;;;;4977874;28;20250;-90
2022/05/03 04:19:16;;;;;;;15.73;10.13;;;9.00;99.90;;;;;;4977780;28;20270;-89
2022/05/03 04:21:44;;;;;;;9.60;7.17;;;9.30;1.00;;;;;;4961617;28;20253;-93
2022/05/03 04:24:11;;;;;;;10.77;7.30;;;9.70;1.00;;;;;;4958741;28;20234;-92
2022/05/03 04:26:38;;;;;;;10.53;6.90;;;10.00;99.90;;;;;;4958602;28;20251;-91
2022/05/03 04:29:05;;;;;;;10.17;6.33;;;10.50;99.90;;;;;;4959234;28;20234;-88
2022/05/03 04:31:34;;;;;;;9.77;5.77;;;11.30;99.90;;;;;;4957772;28;20307;-89
2022/05/03 04:34:03;;;;;;;6.23;5.10;;;12.10;99.90;;;;;;4966295;28;20293;-90
2022/05/03 04:36:30;;;;;;;8.60;4.97;;;13.00;99.90;;;;;;4976303;28;20660;-89
2022/05/03 04:38:58;;;;;;;9.63;4.70;;;13.70;99.90;;;;;;4976181;28;20279;-89
2022/05/03 04:41:25;;;;;;;5.63;4.60;;;14.10;1.00;;;;;;4975837;28;20232;-90
2022/05/03 04:43:52;;;;;;;7.07;5.53;;;14.50;1.00;;;;;;4975975;28;20603;-89
2022/05/03 04:46:19;;;;;;;9.47;6.33;;;15.30;1.00;;;;;;4976008;28;20674;-88
2022/05/03 04:48:46;;;;;;;6.78;5.18;;;16.10;1.00;;;;;;4975609;28;20237;-89
2022/05/03 04:51:18;;;;;;;8.00;4.65;;;17.00;1.00;;;;;;4975627;28;20219;-90
2022/05/03 04:53:45;;;;;;;7.57;4.05;;;18.00;1.00;;;;;;4975348;28;20587;-88
2022/05/03 04:56:19;;;;;;;7.22;4.47;;;19.00;1.00;;;;;;4975690;28;20203;-89
2022/05/03 04:58:47;;;;;;;6.72;4.55;;;20.00;1.00;;;;;;4975362;28;20171;-89
2022/05/03 05:01:13;;;;;;;7.20;5.45;;;20.80;1.00;;;;;;4975306;28;20551;-90
2022/05/03 05:03:41;;;;;;;7.40;5.30;;;21.50;1.00;;;;;;4971784;28;20204;-91
2022/05/03 05:06:09;;;;;;;8.65;6.75;;;22.10;1.00;;;;;;4976515;28;20204;-90
2022/05/03 05:08:36;;;;;;;11.57;8.98;;;22.60;1.00;;;;;;4973920;28;20699;-91
2022/05/03 05:11:04;;;;;;;30.77;26.83;;;23.30;1.00;;;;;;4974000;28;20775;-87
2022/05/03 05:13:32;;;;;;;6.53;4.93;;;24.00;1.00;;;;;;4973505;28;20286;-88
2022/05/03 05:16:00;;;;;;;5.53;3.90;;;24.70;1.00;;;;;;4970469;28;20416;-91
2022/05/03 05:18:28;;;;;;;4.00;3.55;;;25.20;1.00;;;;;;4975631;28;20208;-88
2022/05/03 05:20:55;;;;;;;3.97;3.42;;;25.80;1.00;;;;;;4965107;28;20228;-89
2022/05/03 05:23:22;;;;;;;7.13;3.42;;;26.20;1.00;;;;;;4970671;28;20265;-86
2022/05/03 05:25:49;;;;;;;6.13;3.63;;;26.80;1.00;;;;;;4974351;28;20731;-88
2022/05/03 05:28:17;;;;;;;17.63;12.00;;;27.30;1.00;;;;;;4975421;28;20637;-88
2022/05/03 05:30:46;;;;;;;13.05;8.95;;;27.70;1.00;;;;;;4974973;28;20700;-88
2022/05/03 05:33:13;;;;;;;10.90;7.80;;;28.10;1.00;;;;;;4974085;28;20234;-89
2022/05/03 05:35:41;;;;;;;4.95;3.75;;;28.50;1.00;;;;;;4982277;28;20200;-92
2022/05/03 05:38:08;;;;;;;4.20;3.55;;;28.70;1.00;;;;;;4984316;28;20196;-89
2022/05/03 05:40:35;;;;;;;6.50;5.88;;;28.90;1.00;;;;;;4976186;28;20637;-87
2022/05/03 05:43:03;;;;;;;14.85;12.57;;;29.10;1.00;;;;;;4985097;28;20195;-90
2022/05/03 05:45:30;;;;;;;7.88;4.38;;;29.30;1.00;;;;;;4982962;28;20197;-90
2022/05/03 05:47:58;;;;;;;3.97;3.50;;;29.40;1.00;;;;;;4976993;28;20231;-89
2022/05/03 05:50:26;;;;;;;4.45;3.20;;;29.50;1.00;;;;;;4974563;28;20585;-91
2022/05/03 05:55:38;;;;;;;3.72;3.13;;;29.60;1.00;;;;;;4977773;28;20179;-90
2022/05/03 05:58:05;;;;;;;3.65;3.30;;;29.80;1.00;;;;;;4973784;28;20238;-89
2022/05/03 06:00:32;;;;;;;4.25;3.22;;;30.00;1.00;;;;;;4974527;28;20086;-90
2022/05/03 06:03:00;;;;;;;4.55;3.40;;;30.20;1.00;;;;;;4973826;28;20286;-89
2022/05/03 06:05:28;;;;;;;5.45;3.70;;;30.50;1.00;;;;;;4974283;28;20235;-90
2022/05/03 06:07:55;;;;;;;3.92;3.47;;;30.60;1.00;;;;;;4973736;28;20747;-89
2022/05/03 06:10:23;;;;;;;4.22;3.20;;;30.80;1.00;;;;;;4974516;28;20286;-90
2022/05/03 06:12:51;;;;;;;4.18;3.25;;;30.80;1.00;;;;;;4974029;28;20203;-92
2022/05/03 06:15:19;;;;;;;3.60;2.78;;;31.00;1.00;;;;;;4974145;28;20195;-89
2022/05/03 06:17:46;;;;;;;3.10;2.40;;;31.20;1.00;;;;;;4974305;28;20284;-88
2022/05/03 06:20:15;;;;;;;7.05;2.97;;;31.30;1.00;;;;;;4973451;28;20318;-87
2022/05/03 06:22:42;;;;;;;3.17;2.70;;;31.60;1.00;;;;;;4973617;28;20290;-91
2022/05/03 06:25:10;;;;;;;4.15;2.30;;;31.60;1.00;;;;;;4973526;28;20743;-89
2022/05/03 06:27:38;;;;;;;4.85;3.20;;;31.80;1.00;;;;;;4973669;28;20289;-89
2022/05/03 06:30:06;;;;;;;3.30;2.83;;;32.00;1.00;;;;;;4973723;28;20204;-90
2022/05/03 06:32:33;;;;;;;3.83;2.78;;;32.30;1.00;;;;;;4973724;28;20196;-89
2022/05/03 06:35:00;;;;;;;6.65;2.58;;;32.60;1.00;;;;;;4973125;28;20191;-90
2022/05/03 06:37:28;;;;;;;5.13;2.90;;;32.70;1.00;;;;;;4977210;28;20223;-90
2022/05/03 06:39:56;;;;;;;3.47;1.98;;;32.90;1.00;;;;;;4976063;28;20652;-91
2022/05/03 06:42:23;;;;;;;2.92;2.38;;;32.90;1.00;;;;;;4976245;28;20212;-89
2022/05/03 06:44:50;;;;;;;3.08;2.50;;;33.20;1.00;;;;;;4975956;28;20214;-90
2022/05/03 06:47:16;;;;;;;3.58;2.38;;;33.50;1.00;;;;;;4974951;28;20230;-87
2022/05/03 06:49:44;;;;;;;3.88;2.22;;;33.80;1.00;;;;;;4975343;28;20210;-88
2022/05/03 06:52:11;;;;;;;2.45;2.20;;;34.10;1.00;;;;;;4974518;28;20199;-90
2022/05/03 06:54:39;;;;;;;4.72;2.50;;;34.40;1.00;;;;;;4973070;28;20218;-89
2022/05/03 06:57:06;;;;;;;2.50;1.88;;;34.30;1.00;;;;;;4973136;28;20200;-88
2022/05/03 06:59:33;;;;;;;7.05;4.70;;;34.20;1.00;;;;;;4972767;28;20234;-89
2022/05/03 07:02:00;;;;;;;2.70;2.50;;;34.20;1.00;;;;;;4972696;28;20703;-89
2022/05/03 07:04:27;;;;;;;3.78;1.98;;;34.20;1.00;;;;;;4973013;28;20199;-88
2022/05/03 07:06:54;;;;;;;2.63;1.88;;;34.20;1.00;;;;;;4973074;28;20203;-92
2022/05/03 07:09:21;;;;;;;2.70;1.48;;;34.20;1.00;;;;;;4972464;28;20652;-88
2022/05/03 07:11:49;;;;;;;2.42;1.63;;;34.30;1.00;;;;;;4973345;28;20238;-90
2022/05/03 07:14:16;;;;;;;4.65;1.65;;;34.10;1.00;;;;;;4973109;28;20223;-89
2022/05/03 07:16:43;;;;;;;3.72;1.73;;;34.10;1.00;;;;;;4973777;28;20218;-91
2022/05/03 07:24:53;;;;;;;3.80;1.90;;;34.00;1.00;;;;;;4974094;28;20191;-92
2022/05/03 07:27:22;;;;;;;3.38;1.50;;;34.10;1.00;;;;;;4975321;28;20215;-92
2022/05/03 07:29:49;;;;;;;2.75;1.70;;;34.30;1.00;;;;;;4973391;28;20644;-88
2022/05/03 07:32:16;;;;;;;6.43;1.88;;;34.40;1.00;;;;;;4974655;28;20791;-89
2022/05/03 07:34:47;;;;;;;5.03;1.70;;;34.40;1.00;;;;;;4979733;28;20226;-90
2022/05/03 07:37:15;;;;;;;2.67;1.60;;;34.40;1.00;;;;;;4981341;28;20242;-90
2022/05/03 07:42:32;;;;;;;4.45;2.42;;;34.50;1.00;;;;;;4981369;28;20265;-87
2022/05/03 07:45:15;;;;;;;4.57;2.30;;;34.20;1.00;;;;;;4981635;28;20617;-91
2022/05/03 07:47:42;;;;;;;13.20;9.85;;;34.10;1.00;;;;;;4981827;28;20286;-91
2022/05/03 07:50:31;;;;;;;;;;;;;;;;;;;;;
2022/05/03 07:52:59;;;;;;;23.40;16.08;;;34.10;1.00;;;;;;4983179;28;20187;-88
2022/05/03 07:55:26;;;;;;;17.40;15.57;;;33.90;1.00;;;;;;4977364;28;20199;-90
2022/05/03 07:57:55;;;;;;;3.30;2.45;;;34.10;1.00;;;;;;4976378;28;20187;-91
2022/05/03 08:00:22;;;;;;;9.00;6.47;;;34.10;1.00;;;;;;4976312;28;20210;-91
2022/05/03 08:02:49;;;;;;;4.43;4.03;;;34.10;1.00;;;;;;4975831;28;20313;-88
2022/05/03 08:05:16;;;;;;;4.40;3.88;;;33.90;1.00;;;;;;4975759;28;20663;-88
2022/05/03 08:07:44;;;;;;;3.45;2.75;;;33.60;1.00;;;;;;4975582;28;20200;-89
2022/05/03 08:10:11;;;;;;;4.20;2.60;;;33.50;1.00;;;;;;4976121;28;20599;-90
2022/05/03 08:12:38;;;;;;;2.50;1.85;;;33.40;1.00;;;;;;4975435;28;20286;-87
2022/05/03 08:15:08;;;;;;;7.32;5.80;;;33.40;1.00;;;;;;4975448;28;20223;-88
2022/05/03 08:17:34;;;;;;;5.47;4.93;;;33.40;1.00;;;;;;4975472;28;20278;-87
2022/05/03 08:20:02;;;;;;;3.78;2.67;;;33.30;1.00;;;;;;4975341;28;20318;-87
2022/05/03 08:22:29;;;;;;;5.68;5.10;;;33.10;1.00;;;;;;4975071;28;20580;-91
2022/05/03 08:24:55;;;;;;;2.08;1.75;;;32.90;1.00;;;;;;4975974;28;20202;-90
2022/05/03 08:27:22;;;;;;;5.20;4.70;;;32.60;1.00;;;;;;4976012;28;20652;-89
2022/05/03 08:29:49;;;;;;;1.63;1.30;;;32.50;1.00;;;;;;4975796;28;20223;-88
2022/05/03 08:32:18;;;;;;;3.65;3.22;;;32.70;1.00;;;;;;4974923;28;20675;-88
2022/05/03 08:34:45;;;;;;;2.50;1.33;;;32.80;1.00;;;;;;4976041;28;20535;-88
2022/05/03 08:42:40;;;;;;;2.90;1.58;;;32.40;1.00;;;;;;4975565;28;20294;-87
2022/05/03 08:45:09;;;;;;;6.35;4.47;;;32.40;1.00;;;;;;4975555;28;20278;-87
2022/05/03 08:47:38;;;;;;;1.50;1.13;;;32.20;1.00;;;;;;4975471;28;20210;-87
2022/05/03 08:50:08;;;;;;;3.13;2.53;;;32.40;1.00;;;;;;4975701;28;20195;-88
2022/05/03 08:52:46;;;;;;;2.65;2.00;;;32.70;1.00;;;;;;4975634;28;20263;-87
2022/05/03 08:55:14;;;;;;;3.05;1.60;;;32.70;1.00;;;;;;4975507;28;20634;-87
2022/05/03 08:57:43;;;;;;;4.53;1.92;;;32.80;1.00;;;;;;4974979;28;20622;-88
2022/05/03 09:00:12;;;;;;;2.15;1.80;;;32.80;1.00;;;;;;4974931;28;20202;-87
2022/05/03 09:02:44;;;;;;;1.85;1.52;;;32.90;1.00;;;;;;4974812;28;20219;-88
2022/05/03 09:05:12;;;;;;;3.55;1.92;;;32.90;1.00;;;;;;4974738;28;20302;-88
2022/05/03 09:07:39;;;;;;;3.35;1.55;;;32.80;1.00;;;;;;4973839;28;20552;-87
2022/05/03 09:10:18;;;;;;;1.95;0.95;;;32.70;1.00;;;;;;4974949;28;20292;-87
2022/05/03 09:12:46;;;;;;;2.17;1.50;;;32.60;1.00;;;;;;4974943;28;20218;-88
2022/05/03 09:15:13;;;;;;;1.73;1.30;;;32.40;1.00;;;;;;4974498;28;20208;-88
2022/05/03 09:17:45;;;;;;;3.25;1.42;;;32.10;1.00;;;;;;4974494;28;20235;-88
2022/05/03 09:25:53;;;;;;;1.50;1.40;;;31.90;1.00;;;;;;4974298;28;20106;-87
2022/05/03 09:28:21;;;;;;;;;;;31.70;1.00;;;;;;4975145;28;20121;-86
2022/05/03 09:30:50;;;;;;;;;;;31.50;1.00;;;;;;4974260;28;20955;-88
2022/05/03 09:33:20;;;;;;;3.03;2.70;;;31.10;1.00;;;;;;4974384;28;20658;-87
2022/05/03 09:35:48;;;;;;;4.20;2.55;;;30.70;1.00;;;;;;4974365;28;20177;-88
2022/05/03 09:38:15;;;;;;;4.43;3.67;;;30.20;1.00;;;;;;4974161;28;20196;-88
2022/05/03 09:40:42;;;;;;;;;;;29.50;1.00;;;;;;4974623;28;20238;-87
2022/05/03 09:43:10;;;;;;;3.72;1.83;;;28.90;1.00;;;;;;4974059;28;20209;-88
2022/05/03 09:45:37;;;;;;;3.58;1.60;;;28.20;1.00;;;;;;4974096;28;20561;-87
2022/05/03 09:48:05;;;;;;;2.50;2.17;;;27.70;1.00;;;;;;4974201;28;20602;-88
2022/05/03 09:50:42;;;;;;;3.33;2.40;;;27.30;1.00;;;;;;4974640;28;20203;-86
2022/05/03 09:53:13;;;;;;;2.95;2.30;;;27.00;1.00;;;;;;4974008;28;20172;-89
2022/05/03 09:55:41;;;;;;;3.00;2.28;;;26.90;1.00;;;;;;4974301;28;20187;-86
2022/05/03 09:58:09;;;;;;;5.93;3.25;;;26.60;1.00;;;;;;4974128;28;20198;-86
2022/05/03 10:00:38;;;;;;;3.70;2.10;;;26.40;1.00;;;;;;4974123;28;20235;-86
2022/05/03 10:03:07;;;;;;;12.30;9.05;;;26.10;1.00;;;;;;4973295;28;20584;-86
2022/05/03 10:05:35;;;;;;;4.28;2.40;;;25.60;1.00;;;;;;4974171;28;20278;-86
2022/05/03 10:08:06;;;;;;;2.00;1.77;;;25.30;1.00;;;;;;4974039;28;20227;-86
2022/05/03 10:10:33;;;;;;;3.00;1.80;;;25.20;1.00;;;;;;4974233;28;20290;-86
2022/05/03 10:13:00;;;;;;;2.90;1.98;;;25.10;1.00;;;;;;4973380;28;20616;-88
2022/05/03 10:21:13;;;;;;;2.90;1.60;;;24.60;1.00;;;;;;4973611;28;20318;-89
2022/05/03 10:23:42;;;;;;;2.47;2.28;;;24.40;1.00;;;;;;4972966;28;20282;-86
2022/05/03 10:26:11;;;;;;;2.42;2.00;;;24.30;1.00;;;;;;4973680;28;20212;-88
2022/05/03 10:29:07;;;;;;;2.08;1.52;;;24.20;1.00;;;;;;4973869;28;20231;-88
2022/05/03 10:31:54;;;;;;;3.80;3.05;;;24.20;1.00;;;;;;4954358;28;20216;-86
2022/05/03 10:34:43;;;;;;;5.10;3.35;;;24.10;1.00;;;;;;4953824;29;20204;-86
2022/05/03 10:37:11;;;;;;;1.67;1.27;;;24.10;1.00;;;;;;4954154;28;20984;-86
2022/05/03 10:39:53;;;;;;;6.85;4.50;;;24.00;1.00;;;;;;4954512;28;20200;-85
2022/05/03 10:42:24;;;;;;;2.53;1.30;;;24.00;1.00;;;;;;4960506;28;20207;-85
2022/05/03 10:45:00;;;;;;;2.78;1.42;;;24.00;1.00;;;;;;4973289;28;20195;-85
2022/05/03 10:47:47;;;;;;;3.47;2.20;;;23.90;1.00;;;;;;4973426;28;20618;-89
2022/05/03 10:50:36;;;;;;;2.10;1.55;;;23.90;1.00;;;;;;4973366;28;20231;-87
2022/05/03 10:53:33;;;;;;;3.28;2.63;;;23.80;1.00;;;;;;4973133;28;20219;-87
2022/05/03 10:56:22;;;;;;;1.50;1.20;;;23.80;1.00;;;;;;4914018;29;20268;-86
2022/05/03 10:59:06;;;;;;;2.53;1.50;;;23.70;1.00;;;;;;4968657;28;20294;-86
2022/05/03 11:01:34;;;;;;;4.55;3.15;;;23.50;1.00;;;;;;4973553;28;20192;-87
2022/05/03 11:04:09;;;;;;;3.83;2.00;;;23.50;1.00;;;;;;4973402;28;20200;-86
2022/05/03 11:06:41;;;;;;;6.45;3.70;;;23.50;1.00;;;;;;4973545;28;20265;-86
2022/05/03 11:09:15;;;;;;;2.95;1.80;;;23.50;1.00;;;;;;4973382;28;20207;-86
2022/05/03 11:12:06;;;;;;;2.17;1.50;;;23.50;1.00;;;;;;4973516;28;20270;-85
2022/05/03 11:14:50;;;;;;;1.73;0.82;;;23.50;1.00;;;;;;4974303;28;20626;-86
2022/05/03 11:17:18;;;;;;;2.65;1.73;;;23.60;1.00;;;;;;4976307;28;20309;-85
2022/05/03 11:20:03;;;;;;;3.10;1.70;;;23.60;1.00;;;;;;4976653;28;20311;-85
2022/05/03 11:22:33;;;;;;;3.67;1.90;;;23.50;1.00;;;;;;4976719;28;20302;-86
2022/05/03 11:25:04;;;;;;;4.93;2.90;;;23.40;1.00;;;;;;4977082;28;20227;-88
2022/05/03 11:27:32;;;;;;;3.50;1.90;;;23.30;1.00;;;;;;4976702;28;20188;-89
2022/05/03 11:30:01;;;;;;;5.40;2.20;;;23.30;1.00;;;;;;4976873;28;20223;-89
2022/05/03 11:32:30;;;;;;;2.33;0.60;;;23.30;1.00;;;;;;4976787;28;20675;-86
2022/05/03 11:35:06;;;;;;;2.13;1.00;;;23.40;1.00;;;;;;4976912;28;20282;-87
2022/05/03 11:37:35;;;;;;;0.85;0.70;;;23.40;1.00;;;;;;4975664;28;20270;-85
2022/05/03 11:40:07;;;;;;;7.13;6.10;;;23.50;1.00;;;;;;4976332;28;20603;-88
2022/05/03 11:42:43;;;;;;;2.55;1.10;;;23.50;1.00;;;;;;4976426;28;20290;-87
2022/05/03 11:45:12;;;;;;;1.10;1.00;;;23.30;1.00;;;;;;4976591;28;20200;-87
2022/05/03 11:47:44;;;;;;;2.03;1.83;;;23.20;1.00;;;;;;4976319;28;20635;-88
2022/05/03 11:55:58;;;;;;;6.75;3.22;;;23.10;1.00;;;;;;4976503;28;20188;-89
2022/05/03 11:56:01;;;;;;;3.58;2.55;;;23.10;1.00;;;;;;4976038;28;20294;-87
2022/05/03 11:58:35;;;;;;;2.60;2.30;;;23.10;1.00;;;;;;4976057;28;20188;-86
2022/05/03 12:01:02;;;;;;;3.28;2.45;;;22.90;1.00;;;;;;4976501;28;20254;-88
2022/05/03 12:03:29;;;;;;;2.30;1.80;;;22.90;1.00;;;;;;4976554;28;20267;-86
2022/05/03 12:06:03;;;;;;;1.35;0.98;;;22.90;1.00;;;;;;4976553;28;20235;-88
2022/05/03 12:08:31;;;;;;;2.30;1.30;;;23.00;1.00;;;;;;4976013;28;20574;-87
2022/05/03 12:10:58;;;;;;;1.40;1.30;;;23.00;1.00;;;;;;4976454;28;20233;-87
2022/05/03 12:13:37;;;;;;;2.28;1.80;;;23.20;1.00;;;;;;4973998;28;20266;-86
2022/05/03 12:16:08;;;;;;;2.58;1.95;;;23.10;1.00;;;;;;4975639;28;20251;-87
2022/05/03 12:18:37;;;;;;;2.88;1.13;;;23.00;1.00;;;;;;4975913;28;20238;-88
2022/05/03 12:21:08;;;;;;;1.80;1.20;;;22.90;1.00;;;;;;4975961;28;20243;-86
2022/05/03 12:23:53;;;;;;;3.35;1.60;;;22.90;1.00;;;;;;4975759;28;20212;-85
2022/05/03 12:26:26;;;;;;;1.17;1.08;;;22.80;1.00;;;;;;4975381;28;20238;-86
2022/05/03 12:28:56;;;;;;;1.50;1.23;;;22.70;1.00;;;;;;4970620;28;20271;-84
2022/05/03 12:31:28;;;;;;;1.60;0.90;;;22.60;1.00;;;;;;4975520;28;20184;-85
2022/05/03 12:33:56;;;;;;;3.50;1.58;;;22.60;1.00;;;;;;4975801;28;20199;-85
2022/05/03 12:36:35;;;;;;;3.53;1.08;;;22.70;1.00;;;;;;4975268;28;20686;-86
2022/05/03 12:39:16;;;;;;;2.55;1.42;;;22.70;1.00;;;;;;4974702;28;20199;-86
2022/05/03 12:41:45;;;;;;;2.83;1.25;;;22.70;1.00;;;;;;4975233;28;20203;-84
2022/05/03 12:44:14;;;;;;;4.80;1.55;;;22.70;1.00;;;;;;4973999;28;20301;-86
2022/05/03 12:46:42;;;;;;;4.68;1.70;;;22.70;1.00;;;;;;4975205;28;20187;-87
2022/05/03 12:49:11;;;;;;;3.25;1.60;;;22.60;1.00;;;;;;4975402;28;20291;-87
2022/05/03 12:51:40;;;;;;;3.63;1.80;;;22.50;1.00;;;;;;4974678;28;20283;-86
2022/05/03 12:54:08;;;;;;;3.38;1.70;;;22.30;1.00;;;;;;4974752;28;20202;-86
2022/05/03 12:59:22;;;;;;;8.88;6.60;;;21.90;1.00;;;;;;4975163;28;20299;-86
2022/05/03 13:01:54;;;;;;;8.07;5.38;;;21.80;1.00;;;;;;4971795;28;20725;-88
2022/05/03 13:04:21;;;;;;;8.18;5.97;;;21.80;1.00;;;;;;4977652;28;20639;-88
2022/05/03 13:06:49;;;;;;;3.00;2.10;;;21.80;1.00;;;;;;4974825;28;20684;-87
2022/05/03 13:09:16;;;;;;;2.38;1.85;;;21.70;1.00;;;;;;4974781;28;20730;-88
2022/05/03 13:11:44;;;;;;;3.00;2.70;;;21.70;1.00;;;;;;4976247;28;20273;-88
2022/05/03 13:14:11;;;;;;;2.38;1.55;;;21.70;1.00;;;;;;4972384;28;20584;-88
2022/05/03 13:16:40;;;;;;;3.50;1.88;;;21.80;1.00;;;;;;4973500;28;20211;-88
2022/05/03 13:19:07;;;;;;;3.45;2.40;;;21.80;1.00;;;;;;4974234;28;20314;-86
2022/05/03 13:21:36;;;;;;;2.83;1.75;;;21.70;1.00;;;;;;4974901;28;20199;-85
2022/05/03 13:24:05;;;;;;;3.25;2.13;;;21.60;1.00;;;;;;4974031;28;20224;-87
2022/05/03 13:26:32;;;;;;;2.28;1.83;;;21.70;1.00;;;;;;4974148;28;20227;-85
2022/05/03 13:29:00;;;;;;;2.13;1.93;;;21.70;1.00;;;;;;4972374;28;20258;-85
2022/05/03 13:31:28;;;;;;;2.67;1.73;;;21.70;1.00;;;;;;4972114;28;20699;-87
2022/05/03 13:33:57;;;;;;;3.92;1.77;;;21.70;1.00;;;;;;4971218;28;20196;-85
2022/05/03 13:41:53;;;;;;;3.20;2.60;;;21.70;1.00;;;;;;4972486;28;20198;-87
2022/05/03 13:44:20;;;;;;;2.08;1.67;;;21.80;1.00;;;;;;4971695;28;20314;-85
2022/05/03 13:46:48;;;;;;;2.20;1.77;;;22.00;1.00;;;;;;4971964;28;20279;-86
2022/05/03 13:49:16;;;;;;;3.65;1.60;;;22.20;1.00;;;;;;4973664;28;20191;-85
2022/05/03 13:51:43;;;;;;;1.83;1.55;;;22.10;1.00;;;;;;4973458;28;20266;-87
2022/05/03 13:54:10;;;;;;;2.60;1.58;;;21.90;1.00;;;;;;4973329;28;20287;-85
2022/05/03 13:56:37;;;;;;;2.40;2.20;;;21.60;1.00;;;;;;4973739;28;20302;-85
2022/05/03 13:59:04;;;;;;;3.10;2.10;;;21.30;1.00;;;;;;4973553;28;20282;-85
2022/05/03 14:01:32;;;;;;;2.92;2.25;;;21.10;1.00;;;;;;4972831;28;20358;-85
2022/05/03 14:03:59;;;;;;;4.45;2.22;;;20.90;1.00;;;;;;4972366;28;20215;-84
2022/05/03 14:06:27;;;;;;;;;;;20.90;1.00;;;;;;4973651;28;20101;-86
2022/05/03 14:08:54;;;;;;;3.22;2.22;;;20.80;1.00;;;;;;4973429;28;20573;-85
2022/05/03 14:11:21;;;;;;;2.95;1.90;;;20.60;1.00;;;;;;4973083;28;20227;-86
2022/05/03 14:13:48;;;;;;;2.40;1.63;;;20.60;1.00;;;;;;4973062;28;20293;-85
2022/05/03 14:16:16;;;;;;;17.10;12.07;;;20.60;1.00;;;;;;4973068;28;20202;-84
2022/05/03 14:18:44;;;;;;;7.22;5.22;;;20.60;1.00;;;;;;4972193;28;20188;-86
2022/05/03 14:21:11;;;;;;;10.10;6.53;;;20.60;1.00;;;;;;4972454;28;20215;-86
2022/05/03 14:23:40;;;;;;;7.10;3.92;;;20.60;1.00;;;;;;4972673;28;20218;-85
2022/05/03 14:26:09;;;;;;;4.50;2.33;;;20.50;1.00;;;;;;4973176;28;20235;-86